»·PEaware :: SWA1162 KATL-KSTL

SWA1162 :: KATL-KSTL

FLIGHT INFORMATION

Flight Status: Arrived
Operator:
Southwest Airlines
More flights by this operator :: More flights under this callsign
Pilot: Drew Leevy (13237)
Aircraft: BOEING 737-300
(B733)
More flights by this aircraft type
Origin: KATL Hartsfield-Jackson Atlanta
United States
Destination: KSTL Lambert-St Louis Intl
United States
More flights between these airports :: More routes between these airports
Route: PENCL2 JAACE BNA BOOSH1
File this flight plan on PilotEdge
Remarks: Sample flight plan
Altitude:
(Current/Filed)
32,000ft
Speed:
(Current/Filed)
115kts
Departed: 31-May-17 05:28 PM
Arrived: 31-May-17 06:48 PM
Distance/Time
Traveled:
419nm/1:20
Distance/Time
To Go:
Arrived

Flight Plot

Page will automatically refresh every two minutes.

Flight plan parsing failed; only flown route is shown


Map Options




Map Legend


Flown Route
Filed Route
Departure Airport
Arrival Airport
Navaid (VOR, NDB)
Fix

Horizontal Profiles

Position Reports

Time Latitude Longitude Heading Altitude Ground
Speed
31-May-17 17:11 33.641289 -84.441980 269 1032ft 0kts
31-May-17 17:12 33.641289 -84.441980 269 1032ft 0kts
31-May-17 17:13 33.641289 -84.441980 269 1032ft 0kts
31-May-17 17:14 33.641289 -84.441980 269 1032ft 0kts
31-May-17 17:15 33.641289 -84.441980 269 1032ft 0kts
31-May-17 17:16 33.641289 -84.441980 269 1032ft 0kts
31-May-17 17:17 33.641289 -84.441980 269 1032ft 0kts
31-May-17 17:18 33.641289 -84.441980 269 1032ft 0kts
31-May-17 17:19 33.641289 -84.441980 269 1032ft 0kts
31-May-17 17:20 33.641289 -84.441980 269 1032ft 0kts
31-May-17 17:21 33.641292 -84.441717 269 1032ft 0kts
31-May-17 17:22 33.641300 -84.441151 269 1032ft 0kts
31-May-17 17:23 33.642892 -84.441160 0 1032ft 15kts
31-May-17 17:24 33.644567 -84.437481 82 1032ft 17kts
31-May-17 17:25 33.644649 -84.430894 88 1032ft 22kts
31-May-17 17:26 33.644791 -84.422601 70 1032ft 26kts
31-May-17 17:27 33.645420 -84.413602 90 1032ft 29kts
31-May-17 17:28 33.646751 -84.405927 289 1032ft 15kts
31-May-17 17:29 33.646780 -84.406173 273 1032ft 0kts
31-May-17 17:30 33.646783 -84.428943 270 1074ft 178kts
31-May-17 17:31 33.648439 -84.498877 272 2720ft 226kts
31-May-17 17:32 33.664693 -84.544301 313 2735ft 224kts
31-May-17 17:33 33.722785 -84.582013 358 5630ft 277kts
31-May-17 17:34 33.802555 -84.580650 1 9368ft 293kts
31-May-17 17:35 33.885815 -84.593279 345 12002ft 339kts
31-May-17 17:36 33.983074 -84.624887 344 14383ft 381kts
31-May-17 17:37 34.085431 -84.658053 343 16846ft 408kts
31-May-17 17:38 34.199251 -84.694979 342 19130ft 429kts
31-May-17 17:39 34.299157 -84.757113 316 22607ft 407kts
31-May-17 17:40 34.383613 -84.843590 314 25813ft 394kts
31-May-17 17:41 34.466034 -84.927651 315 28639ft 384kts
31-May-17 17:42 34.547285 -85.010790 315 30202ft 401kts
31-May-17 17:43 34.636327 -85.102016 315 31197ft 427kts
31-May-17 17:44 34.725529 -85.193692 314 32127ft 419kts
31-May-17 17:45 34.813527 -85.284432 314 32100ft 416kts
31-May-17 17:46 34.901191 -85.375045 314 32133ft 403kts
31-May-17 17:47 34.985838 -85.462870 314 32111ft 404kts
31-May-17 17:48 35.071261 -85.551688 314 32101ft 402kts
31-May-17 17:49 35.154129 -85.637857 314 32105ft 402kts
31-May-17 17:50 35.237478 -85.725184 314 32127ft 401kts
31-May-17 17:51 35.322131 -85.813983 314 32130ft 401kts
31-May-17 17:52 35.406549 -85.902763 314 32130ft 401kts
31-May-17 17:53 35.490929 -85.991755 314 32129ft 401kts
31-May-17 17:54 35.575076 -86.080773 314 32128ft 403kts
31-May-17 17:55 35.659330 -86.170133 314 32127ft 400kts
31-May-17 17:56 35.743636 -86.259821 314 32131ft 401kts
31-May-17 17:57 35.827222 -86.348982 314 32116ft 401kts
31-May-17 17:58 35.911171 -86.438804 314 32103ft 401kts
31-May-17 17:59 35.995092 -86.528859 314 32103ft 401kts
31-May-17 18:00 36.078356 -86.618477 314 32125ft 401kts
31-May-17 18:01 36.151744 -86.714945 294 32114ft 396kts
31-May-17 18:02 36.197796 -86.838254 296 32104ft 397kts
31-May-17 18:03 36.245742 -86.960292 296 32102ft 396kts
31-May-17 18:04 36.293890 -87.083048 296 32103ft 396kts
31-May-17 18:05 36.341783 -87.205623 296 32103ft 396kts
31-May-17 18:06 36.389661 -87.328620 296 32103ft 396kts
31-May-17 18:07 36.437182 -87.451181 296 32103ft 397kts
31-May-17 18:08 36.484621 -87.573999 296 32103ft 396kts
31-May-17 18:09 36.530210 -87.692639 295 32070ft 369kts
31-May-17 18:10 36.574669 -87.808726 296 32089ft 375kts
31-May-17 18:11 36.619205 -87.925337 296 32073ft 373kts
31-May-17 18:12 36.663382 -88.041424 296 32077ft 373kts
31-May-17 18:13 36.707638 -88.158152 296 32076ft 373kts
31-May-17 18:14 36.751731 -88.274885 296 32076ft 373kts
31-May-17 18:15 36.795731 -88.391809 296 32076ft 373kts
31-May-17 18:16 36.839494 -88.508541 296 32076ft 373kts
31-May-17 18:17 36.883105 -88.625296 296 32076ft 373kts
31-May-17 18:18 36.925458 -88.739351 295 32078ft 373kts
31-May-17 18:19 36.961757 -88.837268 295 32076ft 373kts
31-May-17 18:20 37.012364 -88.974250 295 32075ft 373kts
31-May-17 18:21 37.055321 -89.091001 295 32076ft 373kts
31-May-17 18:22 37.098355 -89.208410 295 32076ft 373kts
31-May-17 18:23 37.139239 -89.319667 295 32077ft 373kts
31-May-17 18:24 37.174835 -89.417400 295 32076ft 373kts
31-May-17 18:25 37.217768 -89.535784 295 31573ft 373kts
31-May-17 18:26 37.311528 -89.618523 333 29006ft 375kts
31-May-17 18:27 37.391178 -89.661401 332 26768ft 378kts
31-May-17 18:28 37.481645 -89.710933 332 25724ft 348kts
31-May-17 18:29 37.583976 -89.767168 332 23694ft 340kts
31-May-17 18:30 37.655107 -89.806334 332 22310ft 334kts
31-May-17 18:31 37.739297 -89.852716 332 20672ft 328kts
31-May-17 18:32 37.821481 -89.898097 331 19084ft 321kts
31-May-17 18:33 37.902731 -89.942541 332 17513ft 315kts
31-May-17 18:34 37.981368 -89.985736 332 15586ft 307kts
31-May-17 18:35 38.058002 -90.028982 332 13555ft 300kts
31-May-17 18:36 38.133623 -90.069105 346 12095ft 299kts
31-May-17 18:37 38.214799 -90.078483 350 11148ft 280kts
31-May-17 18:38 38.290527 -90.086879 350 10059ft 271kts
31-May-17 18:39 38.364795 -90.094735 358 8858ft 268kts
31-May-17 18:40 38.436904 -90.081763 3 8037ft 252kts
31-May-17 18:41 38.502968 -90.069310 3 6770ft 237kts
31-May-17 18:42 38.566208 -90.057364 3 5746ft 216kts
31-May-17 18:43 38.613310 -90.086981 309 4818ft 196kts
31-May-17 18:44 38.641478 -90.141845 300 4343ft 179kts
31-May-17 18:45 38.663936 -90.188903 301 3336ft 141kts
31-May-17 18:46 38.684293 -90.230182 305 2628ft 137kts
31-May-17 18:47 38.704693 -90.270922 304 1902ft 137kts
31-May-17 18:48 38.724803 -90.311706 303 1070ft 136kts
31-May-17 18:49 38.744450 -90.351402 303 611ft 97kts
31-May-17 18:50 38.747524 -90.360716 273 611ft 0kts
31-May-17 18:51 38.746296 -90.363115 191 611ft 18kts
31-May-17 18:52 38.744806 -90.363164 191 611ft 0kts
31-May-17 18:53 38.742726 -90.360581 121 611ft 17kts
31-May-17 18:54 38.738812 -90.355130 161 611ft 18kts
31-May-17 18:55 38.737869 -90.355594 211 611ft 0kts
31-May-17 18:56 38.737869 -90.355594 211 611ft 0kts
31-May-17 18:57 38.737869 -90.355594 211 611ft 0kts
31-May-17 18:58 38.737869 -90.355594 211 611ft 0kts
31-May-17 18:59 38.737869 -90.355594 211 611ft 0kts
31-May-17 19:00 38.737869 -90.355594 211 611ft 0kts
31-May-17 19:01 38.737869 -90.355594 211 611ft 0kts
31-May-17 19:02 38.737869 -90.355594 211 611ft 0kts
31-May-17 19:03 38.737869 -90.355594 211 611ft 0kts
31-May-17 19:04 38.737869 -90.355594 211 611ft 0kts

Navigation Log

Ident Type
Flight plan parsing failed, navigation log unavailable